Z-five — WDE7721 — position and weather

sailwx.info

Track history (hours):
 
Tides and Currents Weather Stations Pressure Air Temp Water Temp Dewpoint Dewpoint Depression Visibility Wind Speed Wind Dir Waves Ship Positions

Z-five

Owner: Harley Marine Services, INC, SEATTLE, WA. More information available from US FCC via Universal Licensing System and Coast Guard Vessel Documentation Center.

Last reported at 2018-Jun-21 23:30 UTC. Time now 2018-Jun-21 23:48 UTC.
Position N 37°48' W 122°17'.

Length 29 m; draft 4 m.

Type: Tug. MMSI: 367396790.

Date/timePositionNaut miles runAvg speedWind from/ knotsBaromVisibWave heightAir tempDewpointWater temp
2018-Jun-21 23:30N 37°48' W 122°17'0 0.0
2018-Jun-21 23:00N 37°48' W 122°17'0 0.0
2018-Jun-21 22:30N 37°48' W 122°17'0 0.0
2018-Jun-21 22:00N 37°48' W 122°17'4 8.6
2018-Jun-21 21:30N 37°50' W 122°22'611.0
2018-Jun-21 21:00N 37°55' W 122°25'611.4
2018-Jun-21 20:28N 38°01' W 122°24'912.2
2018-Jun-21 19:46N 38°04' W 122°14'21 7.5
2018-Jun-21 16:55N 38°01' W 121°47'2 5.0
2018-Jun-21 16:28N 38°02' W 121°50'3 6.4
2018-Jun-21 15:59N 38°03' W 121°54'0 0.2
2018-Jun-21 15:30N 38°03' W 121°54'14 7.4
2018-Jun-21 13:39N 38°03' W 122°11'210.7
2018-Jun-21 13:30N 38°04' W 122°13'1 0.3
2018-Jun-21 08:52N 38°03' W 122°15'0 0.0
2018-Jun-21 08:25N 38°03' W 122°15'0 0.0
2018-Jun-21 07:43N 38°03' W 122°15'0 0.0
2018-Jun-21 07:21N 38°03' W 122°15'1 4.2
2018-Jun-21 07:00N 38°03' W 122°17'5 9.7
2018-Jun-21 06:29N 38°02' W 122°23'5 9.1
2018-Jun-21 05:59N 37°58' W 122°26'3 5.6
2018-Jun-21 05:30N 37°55' W 122°25'0 0.0
2018-Jun-21 05:00N 37°55' W 122°25'1 2.4
2018-Jun-21 04:30N 37°54' W 122°25'1 2.2
2018-Jun-21 03:57N 37°55' W 122°25'1 1.4
2018-Jun-21 03:30N 37°55' W 122°25'0 0.0
2018-Jun-21 03:00N 37°55' W 122°25'4 7.0
2018-Jun-21 02:30N 37°59' W 122°26'610.2
2018-Jun-21 01:52N 38°03' W 122°19'4 9.7
2018-Jun-21 01:28N 38°04' W 122°15'5 9.5
2018-Jun-21 00:59N 38°02' W 122°09'1 1.9
2018-Jun-21 00:27N 38°02' W 122°08'0 0.1
2018-Jun-20 23:58N 38°02' W 122°08'4 5.6
2018-Jun-20 23:12N 38°04' W 122°13'210.1
2018-Jun-20 22:58N 38°04' W 122°16'5 9.9
2018-Jun-20 22:30N 38°02' W 122°21'610.5
2018-Jun-20 21:59N 37°58' W 122°26'511.1
2018-Jun-20 21:30N 37°53' W 122°25'5 9.2
2018-Jun-20 21:00N 37°49' W 122°21'4 7.1
2018-Jun-20 20:30N 37°48' W 122°17'0 0.0
2018-Jun-20 20:00N 37°48' W 122°17'0 0.0
2018-Jun-20 19:30N 37°48' W 122°17'0 0.0
2018-Jun-20 19:00N 37°48' W 122°17'0 0.0
2018-Jun-20 18:30N 37°48' W 122°17'0 0.0
2018-Jun-20 18:00N 37°48' W 122°17'3 6.7
2018-Jun-20 17:30N 37°48' W 122°21'1 2.6
2018-Jun-20 17:00N 37°46' W 122°22'3 5.1
2018-Jun-20 16:30N 37°49' W 122°23'3 6.4
2018-Jun-20 16:00N 37°50' W 122°26'3 6.2
2018-Jun-20 15:30N 37°49' W 122°30'4 7.8
2018-Jun-20 15:00N 37°47' W 122°34'611.8
2018-Jun-20 14:30N 37°49' W 122°27'612.3
2018-Jun-20 14:00N 37°48' W 122°19'1 1.8
2018-Jun-20 13:30N 37°48' W 122°18'0 0.6
2018-Jun-20 13:00N 37°47' W 122°18'2 3.4
2018-Jun-20 12:31N 37°48' W 122°20'2 4.4
2018-Jun-20 12:00N 37°48' W 122°23'2 3.9
2018-Jun-20 11:30N 37°48' W 122°20'3 5.2
2018-Jun-20 11:00N 37°48' W 122°17'0 0.0
2018-Jun-20 10:30N 37°48' W 122°17'0 0.0
2018-Jun-20 10:00N 37°48' W 122°17'0 0.0
2018-Jun-20 09:30N 37°48' W 122°17'0 0.0
2018-Jun-20 09:01N 37°48' W 122°17'0 0.0
2018-Jun-20 08:30N 37°48' W 122°17'0 0.0
2018-Jun-20 08:00N 37°48' W 122°17'0 0.0
2018-Jun-20 07:30N 37°48' W 122°17'1 1.7
2018-Jun-20 07:00N 37°48' W 122°18'0 0.5
2018-Jun-20 06:30N 37°48' W 122°19'3 5.0
2018-Jun-20 06:00N 37°48' W 122°22'3 6.7
2018-Jun-20 05:29N 37°48' W 122°17'0 0.4
2018-Jun-20 05:00N 37°48' W 122°17'0 0.0
2018-Jun-20 04:30N 37°48' W 122°17'0 0.0
2018-Jun-20 04:00N 37°48' W 122°17'1 2.2
2018-Jun-20 03:31N 37°48' W 122°18'1 1.5
2018-Jun-20 03:00N 37°48' W 122°18'1 2.8
2018-Jun-20 02:30N 37°48' W 122°19'0 0.1
2018-Jun-20 02:01N 37°48' W 122°19'0 0.4
2018-Jun-20 01:30N 37°48' W 122°19'2 3.1
2018-Jun-20 01:00N 37°48' W 122°17'0 0.0
2018-Jun-20 00:29N 37°48' W 122°17'0 0.0
2018-Jun-20 00:00N 37°48' W 122°17'0 0.1
2018-Jun-19 23:30N 37°48' W 122°17'0 0.0
2018-Jun-19 23:00N 37°48' W 122°17'0 0.0
2018-Jun-19 22:30N 37°48' W 122°17'0 0.0
2018-Jun-19 21:59N 37°48' W 122°17'0 0.0
2018-Jun-19 21:30N 37°48' W 122°17'0 0.0
2018-Jun-19 20:59N 37°48' W 122°17'0 0.0
2018-Jun-19 20:29N 37°48' W 122°17'0 0.0
2018-Jun-19 20:00N 37°48' W 122°17'0 0.0
2018-Jun-19 19:30N 37°48' W 122°17'0 0.0
2018-Jun-19 19:00N 37°48' W 122°17'0 0.0
2018-Jun-19 18:30N 37°48' W 122°17'0 0.0
2018-Jun-19 18:00N 37°48' W 122°17'0 0.0
2018-Jun-19 17:29N 37°48' W 122°17'0 0.0
2018-Jun-19 16:58N 37°48' W 122°17'0 0.0
2018-Jun-19 16:30N 37°48' W 122°17'0 0.0
2018-Jun-19 15:59N 37°48' W 122°17'0 0.0
2018-Jun-19 15:30N 37°48' W 122°17'0 0.2
2018-Jun-19 15:00N 37°47' W 122°17'0 0.0
2018-Jun-19 14:30N 37°47' W 122°17'0 0.2
2018-Jun-19 13:56N 37°48' W 122°17'0 0.1
2018-Jun-19 13:29N 37°48' W 122°17'0 0.1
2018-Jun-19 13:00N 37°48' W 122°17'0 0.1
2018-Jun-19 12:30N 37°48' W 122°17'0 0.1
2018-Jun-19 12:00N 37°48' W 122°17'0 0.0
2018-Jun-19 11:30N 37°48' W 122°17'0 0.0
2018-Jun-19 11:00N 37°48' W 122°17'0 0.0
2018-Jun-19 10:30N 37°48' W 122°17'0 0.0
2018-Jun-19 10:00N 37°48' W 122°17'0 0.0
2018-Jun-19 09:30N 37°48' W 122°17'0 0.0
2018-Jun-19 08:59N 37°48' W 122°17'0 0.0
2018-Jun-19 08:29N 37°48' W 122°17'0 0.0
2018-Jun-19 08:00N 37°48' W 122°17'0 0.0
2018-Jun-19 07:30N 37°48' W 122°17'0 0.0
2018-Jun-19 06:59N 37°48' W 122°17'0 0.0
2018-Jun-19 06:30N 37°48' W 122°17'0 0.0
2018-Jun-19 05:59N 37°48' W 122°17'0 0.0
2018-Jun-19 05:30N 37°48' W 122°17'0 0.0
2018-Jun-19 05:00N 37°48' W 122°17'0 0.0
2018-Jun-19 04:30N 37°48' W 122°17'0 0.0
2018-Jun-19 04:00N 37°48' W 122°17'1 2.0
2018-Jun-19 03:30N 37°48' W 122°18'0 0.9
2018-Jun-19 03:01N 37°48' W 122°18'0 0.1
2018-Jun-19 02:30N 37°48' W 122°18'1 1.1
2018-Jun-19 02:01N 37°48' W 122°18'0 0.4
2018-Jun-19 01:30N 37°48' W 122°19'0 0.0
2018-Jun-19 01:00N 37°48' W 122°19'0 0.0
2018-Jun-19 00:31N 37°48' W 122°19'0 0.1
2018-Jun-19 00:00N 37°48' W 122°19'0 0.8
2018-Jun-18 23:30N 37°48' W 122°19'2 3.1
2018-Jun-18 23:00N 37°48' W 122°17'2 3.6
2018-Jun-18 22:31N 37°48' W 122°20'2 4.1
2018-Jun-18 22:00N 37°48' W 122°22'4 7.9
2018-Jun-18 21:30N 37°48' W 122°17'0 0.0
2018-Jun-18 20:58N 37°48' W 122°17'0 0.0
2018-Jun-18 20:30N 37°48' W 122°17'0 0.0
2018-Jun-18 20:00N 37°48' W 122°17'0 0.0
2018-Jun-18 19:30N 37°48' W 122°17'0 0.0
2018-Jun-18 19:00N 37°48' W 122°17'0 0.0
2018-Jun-18 18:31N 37°48' W 122°17'0 0.0
2018-Jun-18 18:00N 37°48' W 122°17'0 0.0
2018-Jun-18 17:30N 37°48' W 122°17'0 0.0
2018-Jun-18 17:00N 37°48' W 122°17'0 0.0
2018-Jun-18 16:30N 37°48' W 122°17'0 0.0
2018-Jun-18 16:00N 37°48' W 122°17'0 0.0
2018-Jun-18 15:30N 37°48' W 122°17'0 0.0
2018-Jun-18 15:00N 37°48' W 122°17'0 0.0
2018-Jun-18 14:30N 37°48' W 122°17'0 0.0
2018-Jun-18 14:00N 37°48' W 122°17'0 0.0
2018-Jun-18 13:30N 37°48' W 122°17'0 1.0
2018-Jun-18 13:00N 37°48' W 122°18'1 2.4
2018-Jun-18 12:30N 37°48' W 122°19'1 2.7
2018-Jun-18 12:00N 37°48' W 122°18'1 2.5
2018-Jun-18 11:30N 37°48' W 122°19'2 4.2
2018-Jun-18 11:00N 37°48' W 122°22'3 6.4
2018-Jun-18 10:30N 37°48' W 122°18'0 0.9
2018-Jun-18 10:00N 37°48' W 122°17'0 0.0
2018-Jun-18 09:30N 37°48' W 122°17'0 0.0
2018-Jun-18 08:59N 37°48' W 122°17'0 0.0
2018-Jun-18 08:30N 37°48' W 122°17'0 0.0
2018-Jun-18 08:00N 37°48' W 122°17'0 0.0
2018-Jun-18 07:30N 37°48' W 122°17'0 0.0
2018-Jun-18 07:00N 37°48' W 122°17'0 0.0
2018-Jun-18 06:30N 37°48' W 122°17'0 0.0
2018-Jun-18 06:00N 37°48' W 122°17'0 0.0
2018-Jun-18 05:30N 37°48' W 122°17'0 0.0
2018-Jun-18 05:01N 37°48' W 122°17'0 0.0
2018-Jun-18 04:30N 37°48' W 122°17'0 0.0
2018-Jun-18 03:58N 37°48' W 122°17'0 0.0
2018-Jun-18 03:30N 37°48' W 122°17'0 0.0
2018-Jun-18 03:00N 37°48' W 122°17'0 0.0
2018-Jun-18 02:30N 37°48' W 122°17'0 0.0
2018-Jun-18 02:00N 37°48' W 122°17'0 0.3
2018-Jun-18 01:30N 37°48' W 122°17'1 2.3
2018-Jun-18 01:00N 37°48' W 122°19'2 3.2
2018-Jun-18 00:30N 37°48' W 122°21'1 2.3
2018-Jun-18 00:00N 37°48' W 122°19'1 2.9
2018-Jun-17 23:30N 37°48' W 122°17'1 2.5
2018-Jun-17 23:00N 37°48' W 122°19'0 0.1
2018-Jun-17 22:30N 37°48' W 122°19'2 3.0
2018-Jun-17 22:00N 37°48' W 122°17'0 0.3
2018-Jun-17 21:30N 37°48' W 122°17'0 0.0
2018-Jun-17 21:00N 37°48' W 122°17'0 0.0
2018-Jun-17 20:28N 37°48' W 122°17'0 0.0
2018-Jun-17 20:00N 37°48' W 122°17'0 0.0
2018-Jun-17 19:30N 37°48' W 122°17'0 0.0
2018-Jun-17 19:00N 37°48' W 122°17'0 0.0
2018-Jun-17 18:30N 37°48' W 122°17'0 0.0
2018-Jun-17 18:00N 37°48' W 122°17'0 0.0
2018-Jun-17 17:30N 37°48' W 122°17'0 0.0
2018-Jun-17 17:00N 37°48' W 122°17'0 0.0
2018-Jun-17 16:30N 37°48' W 122°17'0 0.6
2018-Jun-17 15:59N 37°48' W 122°18'4 8.6
2018-Jun-17 15:30N 37°50' W 122°22'610.8
2018-Jun-17 14:59N 37°55' W 122°25'712.4
2018-Jun-17 14:28N 38°01' W 122°23'812.3
2018-Jun-17 13:49N 38°04' W 122°14'5 2.7
2018-Jun-17 12:03N 38°02' W 122°08'0 0.3
2018-Jun-17 11:59N 38°02' W 122°08'5 5.5
2018-Jun-17 11:09N 38°04' W 122°13'1 0.8
2018-Jun-17 09:46N 38°03' W 122°15'1 2.0
2018-Jun-17 09:23N 38°04' W 122°14'2 1.0
2018-Jun-17 06:55N 38°03' W 122°11'5 9.7
2018-Jun-17 06:26N 38°03' W 122°17'611.0
2018-Jun-17 05:52N 38°01' W 122°24'511.1
2018-Jun-17 05:26N 37°56' W 122°26'511.3
2018-Jun-17 05:00N 37°51' W 122°23'510.8
2018-Jun-17 04:31N 37°48' W 122°19'0 0.4
2018-Jun-17 04:01N 37°48' W 122°19'0 0.2
2018-Jun-17 03:31N 37°48' W 122°19'2 3.7
2018-Jun-17 03:00N 37°48' W 122°21'3 6.1
2018-Jun-17 02:30N 37°48' W 122°17'0 0.0
2018-Jun-17 02:00N 37°48' W 122°17'0 0.0
2018-Jun-17 01:31N 37°48' W 122°17'0 0.0
2018-Jun-17 01:01N 37°48' W 122°17'0 0.0
2018-Jun-17 00:30N 37°48' W 122°17'0 0.0
2018-Jun-17 00:00N 37°48' W 122°17'0 0.0
2018-Jun-16 23:31N 37°48' W 122°17'0 0.0
2018-Jun-16 23:00N 37°48' W 122°17'0 0.4
2018-Jun-16 22:31N 37°47' W 122°17'0 0.4
2018-Jun-16 22:01N 37°48' W 122°17'0 0.0
2018-Jun-16 21:30N 37°48' W 122°17'0 0.0
2018-Jun-16 21:01N 37°48' W 122°17'0 0.0
2018-Jun-16 20:30N 37°48' W 122°17'0 0.0
2018-Jun-16 20:00N 37°48' W 122°17'0 0.0
2018-Jun-16 19:31N 37°48' W 122°17'0 0.0
2018-Jun-16 19:01N 37°48' W 122°17'0 0.0
2018-Jun-16 18:29N 37°48' W 122°17'0 0.0
2018-Jun-16 18:00N 37°48' W 122°17'0 0.0
2018-Jun-16 17:31N 37°48' W 122°17'0 0.0
2018-Jun-16 17:00N 37°48' W 122°17'0 0.0
2018-Jun-16 16:31N 37°48' W 122°17'0 0.0
2018-Jun-16 16:01N 37°48' W 122°17'0 0.0
2018-Jun-16 15:30N 37°48' W 122°17'0 0.0
2018-Jun-16 15:01N 37°48' W 122°17'0 0.0
2018-Jun-16 14:30N 37°48' W 122°17'0 0.0
2018-Jun-16 13:59N 37°48' W 122°17'0 0.0
2018-Jun-16 13:31N 37°48' W 122°17'0 0.0
2018-Jun-16 13:00N 37°48' W 122°17'0 0.0
2018-Jun-16 12:30N 37°48' W 122°17'0 0.0
2018-Jun-16 12:00N 37°48' W 122°17'0 0.0
2018-Jun-16 11:29N 37°48' W 122°17'0 0.0
2018-Jun-16 11:00N 37°48' W 122°17'0 0.0
2018-Jun-16 10:30N 37°48' W 122°17'3 5.8
2018-Jun-16 10:00N 37°48' W 122°21'1 1.9
2018-Jun-16 09:31N 37°49' W 122°20'2 3.2
2018-Jun-16 09:00N 37°48' W 122°18'1 1.7
2018-Jun-16 08:30N 37°48' W 122°17'0 0.0
2018-Jun-16 08:00N 37°48' W 122°17'0 0.0
2018-Jun-16 07:30N 37°48' W 122°17'0 0.0
2018-Jun-16 07:00N 37°48' W 122°17'0 0.0
2018-Jun-16 06:30N 37°48' W 122°17'0 0.0
2018-Jun-16 06:00N 37°48' W 122°17'0 0.0
2018-Jun-16 05:29N 37°48' W 122°17'0 0.0
2018-Jun-16 04:59N 37°48' W 122°17'0 0.0
2018-Jun-16 04:30N 37°48' W 122°17'0 0.0
2018-Jun-16 04:00N 37°48' W 122°17'0 0.3
2018-Jun-16 03:30N 37°48' W 122°17'0 0.3
2018-Jun-16 03:00N 37°48' W 122°17'2 3.5
2018-Jun-16 02:30N 37°48' W 122°19'0 0.6
2018-Jun-16 02:00N 37°48' W 122°20'1 1.3
2018-Jun-16 01:30N 37°48' W 122°19'0 0.7
2018-Jun-16 01:00N 37°48' W 122°19'1 1.4
2018-Jun-16 00:30N 37°48' W 122°20'1 1.8
2018-Jun-16 00:01N 37°48' W 122°21'2 4.3
2018-Jun-15 23:31N 37°48' W 122°24'0 0.1
2018-Jun-15 23:01N 37°48' W 122°24'0 0.0
2018-Jun-15 22:30N 37°48' W 122°24'1 1.5
2018-Jun-15 22:01N 37°48' W 122°23'5 9.0
2018-Jun-15 21:31N 37°48' W 122°18'0 0.6
2018-Jun-15 21:01N 37°48' W 122°17'0 0.0
2018-Jun-15 20:30N 37°48' W 122°17'0 0.0
2018-Jun-15 20:00N 37°48' W 122°17'0 0.0
2018-Jun-15 19:30N 37°48' W 122°17'0 0.0
2018-Jun-15 19:01N 37°48' W 122°17'0 0.0
2018-Jun-15 18:31N 37°48' W 122°17'0 0.0
2018-Jun-15 18:00N 37°48' W 122°17'0 0.0
2018-Jun-15 17:30N 37°48' W 122°17'0 0.0
2018-Jun-15 16:58N 37°48' W 122°17'0 0.0
2018-Jun-15 16:30N 37°48' W 122°17'0 0.0
2018-Jun-15 16:00N 37°48' W 122°17'0 0.0
2018-Jun-15 15:30N 37°48' W 122°17'0 0.0
2018-Jun-15 15:00N 37°48' W 122°17'0 0.0
2018-Jun-15 14:30N 37°48' W 122°17'0 0.6
2018-Jun-15 14:00N 37°48' W 122°18'0 0.0
2018-Jun-15 13:31N 37°48' W 122°18'0 0.2
2018-Jun-15 13:00N 37°48' W 122°18'3 4.9
2018-Jun-15 12:27N 37°48' W 122°21'3 7.0
2018-Jun-15 12:00N 37°48' W 122°17'0 0.0
2018-Jun-15 11:30N 37°48' W 122°17'0 0.0
2018-Jun-15 11:01N 37°48' W 122°17'0 0.0
2018-Jun-15 10:30N 37°48' W 122°17'0 0.0
2018-Jun-15 10:00N 37°48' W 122°17'0 0.0
2018-Jun-15 09:31N 37°48' W 122°17'1 2.2
2018-Jun-15 08:58N 37°48' W 122°19'0 0.0
2018-Jun-15 08:30N 37°48' W 122°19'1 1.1
2018-Jun-15 08:00N 37°48' W 122°19'4 7.3
2018-Jun-15 07:30N 37°48' W 122°24'3 6.5
2018-Jun-15 07:00N 37°48' W 122°20'2 0.7
2018-Jun-15 04:04N 37°48' W 122°17'0 0.1
2018-Jun-15 04:00N 37°48' W 122°17'0 0.0
2018-Jun-15 03:30N 37°48' W 122°17'0 0.0
2018-Jun-15 03:01N 37°48' W 122°17'0 0.0
2018-Jun-15 02:31N 37°48' W 122°17'0 0.0
2018-Jun-15 02:01N 37°48' W 122°17'0 0.0
2018-Jun-15 01:30N 37°48' W 122°17'0 0.0
2018-Jun-15 01:00N 37°48' W 122°17'0 0.0
2018-Jun-15 00:30N 37°48' W 122°17'0 0.0
2018-Jun-15 00:01N 37°48' W 122°17'0 0.0
2018-Jun-14 23:30N 37°48' W 122°17'0 0.0
2018-Jun-14 23:00N 37°48' W 122°17'0 0.0
2018-Jun-14 22:30N 37°48' W 122°17'0 0.0
2018-Jun-14 22:00N 37°48' W 122°17'0 0.0
2018-Jun-14 21:30N 37°48' W 122°17'0 0.0
2018-Jun-14 21:00N 37°48' W 122°17'0 0.0
2018-Jun-14 20:31N 37°48' W 122°17'0 0.0
2018-Jun-14 20:00N 37°48' W 122°17'0 0.0
2018-Jun-14 19:30N 37°48' W 122°17'0 0.0
2018-Jun-14 19:00N 37°48' W 122°17'0 0.0
2018-Jun-14 18:30N 37°48' W 122°17'0 0.0
2018-Jun-14 18:00N 37°48' W 122°17'0 0.0
2018-Jun-14 17:30N 37°48' W 122°17'0 0.0
2018-Jun-14 17:00N 37°48' W 122°17'0 0.0
2018-Jun-14 16:30N 37°48' W 122°17'0 0.0
2018-Jun-14 16:00N 37°48' W 122°17'0 0.0
2018-Jun-14 15:28N 37°48' W 122°17'0 0.0
2018-Jun-14 15:00N 37°48' W 122°17'0 0.0
2018-Jun-14 14:30N 37°48' W 122°17'0 0.0
2018-Jun-14 14:00N 37°48' W 122°17'1 1.6
2018-Jun-14 13:31N 37°48' W 122°18'1 1.7
2018-Jun-14 13:00N 37°48' W 122°19'3 6.2
2018-Jun-14 12:29N 37°48' W 122°23'1 1.1
2018-Jun-14 12:01N 37°48' W 122°23'4 8.4
2018-Jun-14 11:30N 37°48' W 122°18'0 0.9
2018-Jun-14 11:01N 37°48' W 122°17'0 0.0
2018-Jun-14 10:29N 37°48' W 122°17'0 0.0
2018-Jun-14 10:00N 37°48' W 122°17'0 0.0
2018-Jun-14 09:30N 37°48' W 122°17'0 0.0
2018-Jun-14 09:00N 37°48' W 122°17'0 0.0
2018-Jun-14 08:30N 37°48' W 122°17'0 0.1
2018-Jun-14 08:01N 37°48' W 122°17'0 0.1
2018-Jun-14 07:29N 37°48' W 122°17'0 0.0
2018-Jun-14 07:00N 37°48' W 122°17'0 0.0
2018-Jun-14 06:30N 37°48' W 122°17'0 0.0
2018-Jun-14 06:00N 37°48' W 122°17'0 0.0
2018-Jun-14 05:30N 37°48' W 122°17'0 0.0
2018-Jun-14 05:01N 37°48' W 122°17'0 0.0
2018-Jun-14 04:29N 37°48' W 122°17'0 0.0
2018-Jun-14 04:00N 37°48' W 122°17'0 0.0
2018-Jun-14 03:30N 37°48' W 122°17'0 0.0
2018-Jun-14 03:00N 37°48' W 122°17'0 0.0
2018-Jun-14 02:30N 37°48' W 122°17'0 0.0
2018-Jun-14 01:59N 37°48' W 122°17'0 0.0
2018-Jun-14 01:26N 37°48' W 122°17'0 0.0
2018-Jun-14 01:00N 37°48' W 122°17'1 1.2
2018-Jun-14 00:30N 37°48' W 122°18'4 8.1
2018-Jun-14 00:00N 37°50' W 122°22'510.2
2018-Jun-13 23:30N 37°54' W 122°25'611.2
2018-Jun-13 23:00N 38°00' W 122°25'610.1
2018-Jun-13 22:27N 38°03' W 122°19'4 9.4
2018-Jun-13 22:01N 38°04' W 122°13'1 0.3
2018-Jun-13 18:35N 38°03' W 122°12'111.6
2018-Jun-13 18:29N 38°04' W 122°13'611.8
2018-Jun-13 17:58N 38°02' W 122°21'612.7
2018-Jun-13 17:30N 37°58' W 122°26'612.7
2018-Jun-13 17:00N 37°52' W 122°23'5 9.6
2018-Jun-13 16:30N 37°48' W 122°20'2 3.8
2018-Jun-13 16:00N 37°48' W 122°17'0 0.0
2018-Jun-13 15:29N 37°48' W 122°17'0 0.0
2018-Jun-13 15:00N 37°48' W 122°17'0 0.0
2018-Jun-13 14:30N 37°48' W 122°17'0 0.0
2018-Jun-13 14:00N 37°48' W 122°17'0 0.0
2018-Jun-13 13:30N 37°48' W 122°17'0 0.0
2018-Jun-13 13:00N 37°48' W 122°17'0 0.0
2018-Jun-13 12:30N 37°48' W 122°17'0 0.0
2018-Jun-13 12:00N 37°48' W 122°17'0 0.0
2018-Jun-13 11:30N 37°48' W 122°17'0 0.0
2018-Jun-13 11:00N 37°48' W 122°17'0 0.0
2018-Jun-13 10:30N 37°48' W 122°17'0 0.0
2018-Jun-13 10:00N 37°48' W 122°17'0 0.0
2018-Jun-13 09:30N 37°48' W 122°17'0 0.0
2018-Jun-13 09:00N 37°48' W 122°17'0 0.0
2018-Jun-13 08:30N 37°48' W 122°17'0 0.0
2018-Jun-13 07:54N 37°48' W 122°17'0 0.0
2018-Jun-13 07:30N 37°48' W 122°17'0 0.0
2018-Jun-13 07:00N 37°48' W 122°17'0 0.0
2018-Jun-13 06:30N 37°48' W 122°17'0 0.0
2018-Jun-13 06:00N 37°48' W 122°17'0 0.0
2018-Jun-13 05:30N 37°48' W 122°17'0 0.0
2018-Jun-13 05:00N 37°48' W 122°17'0 0.0
2018-Jun-13 04:30N 37°48' W 122°17'1 1.6
2018-Jun-13 04:00N 37°48' W 122°18'0 1.0
2018-Jun-13 03:30N 37°48' W 122°18'0 0.0
2018-Jun-13 03:00N 37°48' W 122°18'0 0.1
2018-Jun-13 02:30N 37°48' W 122°18'0 0.7
2018-Jun-13 02:00N 37°48' W 122°17'0 0.0
2018-Jun-13 01:30N 37°48' W 122°17'0 0.0
2018-Jun-13 00:58N 37°48' W 122°17'0 0.0
2018-Jun-13 00:30N 37°48' W 122°17'0 0.0
2018-Jun-13 00:00N 37°48' W 122°17'0 0.0
2018-Jun-12 23:30N 37°48' W 122°17'0 0.0
2018-Jun-12 23:00N 37°48' W 122°17'0 0.0
2018-Jun-12 22:30N 37°48' W 122°17'0 0.0
2018-Jun-12 22:00N 37°48' W 122°17'0 0.0
2018-Jun-12 21:30N 37°48' W 122°17'0 0.5
2018-Jun-12 21:00N 37°47' W 122°17'3 5.6
2018-Jun-12 20:30N 37°46' W 122°21'510.9
2018-Jun-12 20:00N 37°41' W 122°20'11 9.3
2018-Jun-12 18:49N 37°32' W 122°12'1 4.5
2018-Jun-12 18:30N 37°31' W 122°13'0 0.2
2018-Jun-12 18:00N 37°31' W 122°13'0 0.3
2018-Jun-12 17:30N 37°31' W 122°13'0 0.0
2018-Jun-12 14:31N 37°31' W 122°13'0 1.5
2018-Jun-12 14:30N 37°31' W 122°13'2 3.7
2018-Jun-12 14:00N 37°32' W 122°12'2 3.1
2018-Jun-12 13:30N 37°31' W 122°13'0 0.0
2018-Jun-12 13:00N 37°31' W 122°13'3 5.8
2018-Jun-12 12:30N 37°34' W 122°13'5 8.2
2018-Jun-12 11:56N 37°37' W 122°17'4 8.1
2018-Jun-12 11:29N 37°40' W 122°19'4 8.6
2018-Jun-12 11:00N 37°44' W 122°21'4 8.1
2018-Jun-12 10:30N 37°48' W 122°20'2 4.8
2018-Jun-12 10:00N 37°48' W 122°17'0 0.0
2018-Jun-12 09:30N 37°48' W 122°17'0 0.0
2018-Jun-12 09:00N 37°48' W 122°17'0 0.0
2018-Jun-12 08:30N 37°48' W 122°17'0 0.0
2018-Jun-12 08:00N 37°48' W 122°17'0 0.0
2018-Jun-12 07:30N 37°48' W 122°17'0 0.0
2018-Jun-12 07:00N 37°48' W 122°17'0 0.0
2018-Jun-12 06:30N 37°48' W 122°17'0 0.0
2018-Jun-12 06:00N 37°48' W 122°17'0 0.0
2018-Jun-12 05:30N 37°48' W 122°17'0 0.0
2018-Jun-12 05:00N 37°48' W 122°17'0 0.0
2018-Jun-12 04:30N 37°48' W 122°17'0 0.0
2018-Jun-12 04:00N 37°48' W 122°17'0 0.0
2018-Jun-12 03:30N 37°48' W 122°17'0 0.0
2018-Jun-12 03:00N 37°48' W 122°17'0 0.0
2018-Jun-12 02:30N 37°48' W 122°17'0 0.0
2018-Jun-12 02:00N 37°48' W 122°17'0 0.0
2018-Jun-12 01:30N 37°48' W 122°17'0 0.0
2018-Jun-12 01:00N 37°48' W 122°17'0 0.0
2018-Jun-12 00:30N 37°48' W 122°17'0 0.0
2018-Jun-12 00:00N 37°48' W 122°17'  
Track history (hours):
 
Tides and Currents Weather Stations Pressure Air Temp Water Temp Dewpoint Dewpoint Depression Visibility Wind Speed Wind Dir Waves Ship Positions

Z-five

Owner: Harley Marine Services, INC, SEATTLE, WA. More information available from US FCC via Universal Licensing System and Coast Guard Vessel Documentation Center.

Last reported at 2018-Jun-21 23:30 UTC. Time now 2018-Jun-21 23:48 UTC.
Position N 37°48' W 122°17'.

Length 29 m; draft 4 m.

Type: Tug. MMSI: 367396790.

Date/timePositionNaut miles runAvg speedWind from/ knotsBaromVisibWave heightAir tempDewpointWater temp
2018-Jun-21 23:30N 37°48' W 122°17'0 0.0
2018-Jun-21 23:00N 37°48' W 122°17'0 0.0
2018-Jun-21 22:30N 37°48' W 122°17'0 0.0
2018-Jun-21 22:00N 37°48' W 122°17'4 8.6
2018-Jun-21 21:30N 37°50' W 122°22'611.0
2018-Jun-21 21:00N 37°55' W 122°25'611.4
2018-Jun-21 20:28N 38°01' W 122°24'912.2
2018-Jun-21 19:46N 38°04' W 122°14'21 7.5
2018-Jun-21 16:55N 38°01' W 121°47'2 5.0
2018-Jun-21 16:28N 38°02' W 121°50'3 6.4
2018-Jun-21 15:59N 38°03' W 121°54'0 0.2
2018-Jun-21 15:30N 38°03' W 121°54'14 7.4
2018-Jun-21 13:39N 38°03' W 122°11'210.7
2018-Jun-21 13:30N 38°04' W 122°13'1 0.3
2018-Jun-21 08:52N 38°03' W 122°15'0 0.0
2018-Jun-21 08:25N 38°03' W 122°15'0 0.0
2018-Jun-21 07:43N 38°03' W 122°15'0 0.0
2018-Jun-21 07:21N 38°03' W 122°15'1 4.2
2018-Jun-21 07:00N 38°03' W 122°17'5 9.7
2018-Jun-21 06:29N 38°02' W 122°23'5 9.1
2018-Jun-21 05:59N 37°58' W 122°26'3 5.6
2018-Jun-21 05:30N 37°55' W 122°25'0 0.0
2018-Jun-21 05:00N 37°55' W 122°25'1 2.4
2018-Jun-21 04:30N 37°54' W 122°25'1 2.2
2018-Jun-21 03:57N 37°55' W 122°25'1 1.4
2018-Jun-21 03:30N 37°55' W 122°25'0 0.0
2018-Jun-21 03:00N 37°55' W 122°25'4 7.0
2018-Jun-21 02:30N 37°59' W 122°26'610.2
2018-Jun-21 01:52N 38°03' W 122°19'4 9.7
2018-Jun-21 01:28N 38°04' W 122°15'5 9.5
2018-Jun-21 00:59N 38°02' W 122°09'1 1.9
2018-Jun-21 00:27N 38°02' W 122°08'0 0.1
2018-Jun-20 23:58N 38°02' W 122°08'4 5.6
2018-Jun-20 23:12N 38°04' W 122°13'210.1
2018-Jun-20 22:58N 38°04' W 122°16'5 9.9
2018-Jun-20 22:30N 38°02' W 122°21'610.5
2018-Jun-20 21:59N 37°58' W 122°26'511.1
2018-Jun-20 21:30N 37°53' W 122°25'5 9.2
2018-Jun-20 21:00N 37°49' W 122°21'4 7.1
2018-Jun-20 20:30N 37°48' W 122°17'0 0.0
2018-Jun-20 20:00N 37°48' W 122°17'0 0.0
2018-Jun-20 19:30N 37°48' W 122°17'0 0.0
2018-Jun-20 19:00N 37°48' W 122°17'0 0.0
2018-Jun-20 18:30N 37°48' W 122°17'0 0.0
2018-Jun-20 18:00N 37°48' W 122°17'3 6.7
2018-Jun-20 17:30N 37°48' W 122°21'1 2.6
2018-Jun-20 17:00N 37°46' W 122°22'3 5.1
2018-Jun-20 16:30N 37°49' W 122°23'3 6.4
2018-Jun-20 16:00N 37°50' W 122°26'3 6.2
2018-Jun-20 15:30N 37°49' W 122°30'4 7.8
2018-Jun-20 15:00N 37°47' W 122°34'611.8
2018-Jun-20 14:30N 37°49' W 122°27'612.3
2018-Jun-20 14:00N 37°48' W 122°19'1 1.8
2018-Jun-20 13:30N 37°48' W 122°18'0 0.6
2018-Jun-20 13:00N 37°47' W 122°18'2 3.4
2018-Jun-20 12:31N 37°48' W 122°20'2 4.4
2018-Jun-20 12:00N 37°48' W 122°23'2 3.9
2018-Jun-20 11:30N 37°48' W 122°20'3 5.2
2018-Jun-20 11:00N 37°48' W 122°17'0 0.0
2018-Jun-20 10:30N 37°48' W 122°17'0 0.0
2018-Jun-20 10:00N 37°48' W 122°17'0 0.0
2018-Jun-20 09:30N 37°48' W 122°17'0 0.0
2018-Jun-20 09:01N 37°48' W 122°17'0 0.0
2018-Jun-20 08:30N 37°48' W 122°17'0 0.0
2018-Jun-20 08:00N 37°48' W 122°17'0 0.0
2018-Jun-20 07:30N 37°48' W 122°17'1 1.7
2018-Jun-20 07:00N 37°48' W 122°18'0 0.5
2018-Jun-20 06:30N 37°48' W 122°19'3 5.0
2018-Jun-20 06:00N 37°48' W 122°22'3 6.7
2018-Jun-20 05:29N 37°48' W 122°17'0 0.4
2018-Jun-20 05:00N 37°48' W 122°17'0 0.0
2018-Jun-20 04:30N 37°48' W 122°17'0 0.0
2018-Jun-20 04:00N 37°48' W 122°17'1 2.2
2018-Jun-20 03:31N 37°48' W 122°18'1 1.5
2018-Jun-20 03:00N 37°48' W 122°18'1 2.8
2018-Jun-20 02:30N 37°48' W 122°19'0 0.1
2018-Jun-20 02:01N 37°48' W 122°19'0 0.4
2018-Jun-20 01:30N 37°48' W 122°19'2 3.1
2018-Jun-20 01:00N 37°48' W 122°17'0 0.0
2018-Jun-20 00:29N 37°48' W 122°17'0 0.0
2018-Jun-20 00:00N 37°48' W 122°17'0 0.1
2018-Jun-19 23:30N 37°48' W 122°17'0 0.0
2018-Jun-19 23:00N 37°48' W 122°17'0 0.0
2018-Jun-19 22:30N 37°48' W 122°17'0 0.0
2018-Jun-19 21:59N 37°48' W 122°17'0 0.0
2018-Jun-19 21:30N 37°48' W 122°17'0 0.0
2018-Jun-19 20:59N 37°48' W 122°17'0 0.0
2018-Jun-19 20:29N 37°48' W 122°17'0 0.0
2018-Jun-19 20:00N 37°48' W 122°17'0 0.0
2018-Jun-19 19:30N 37°48' W 122°17'0 0.0
2018-Jun-19 19:00N 37°48' W 122°17'0 0.0
2018-Jun-19 18:30N 37°48' W 122°17'0 0.0
2018-Jun-19 18:00N 37°48' W 122°17'0 0.0
2018-Jun-19 17:29N 37°48' W 122°17'0 0.0
2018-Jun-19 16:58N 37°48' W 122°17'0 0.0
2018-Jun-19 16:30N 37°48' W 122°17'0 0.0
2018-Jun-19 15:59N 37°48' W 122°17'0 0.0
2018-Jun-19 15:30N 37°48' W 122°17'0 0.2
2018-Jun-19 15:00N 37°47' W 122°17'0 0.0
2018-Jun-19 14:30N 37°47' W 122°17'0 0.2
2018-Jun-19 13:56N 37°48' W 122°17'0 0.1
2018-Jun-19 13:29N 37°48' W 122°17'0 0.1
2018-Jun-19 13:00N 37°48' W 122°17'0 0.1
2018-Jun-19 12:30N 37°48' W 122°17'0 0.1
2018-Jun-19 12:00N 37°48' W 122°17'0 0.0
2018-Jun-19 11:30N 37°48' W 122°17'0 0.0
2018-Jun-19 11:00N 37°48' W 122°17'0 0.0
2018-Jun-19 10:30N 37°48' W 122°17'0 0.0
2018-Jun-19 10:00N 37°48' W 122°17'0 0.0
2018-Jun-19 09:30N 37°48' W 122°17'0 0.0
2018-Jun-19 08:59N 37°48' W 122°17'0 0.0
2018-Jun-19 08:29N 37°48' W 122°17'0 0.0
2018-Jun-19 08:00N 37°48' W 122°17'0 0.0
2018-Jun-19 07:30N 37°48' W 122°17'0 0.0
2018-Jun-19 06:59N 37°48' W 122°17'0 0.0
2018-Jun-19 06:30N 37°48' W 122°17'0 0.0
2018-Jun-19 05:59N 37°48' W 122°17'0 0.0
2018-Jun-19 05:30N 37°48' W 122°17'0 0.0
2018-Jun-19 05:00N 37°48' W 122°17'0 0.0
2018-Jun-19 04:30N 37°48' W 122°17'0 0.0
2018-Jun-19 04:00N 37°48' W 122°17'1 2.0
2018-Jun-19 03:30N 37°48' W 122°18'0 0.9
2018-Jun-19 03:01N 37°48' W 122°18'0 0.1
2018-Jun-19 02:30N 37°48' W 122°18'1 1.1
2018-Jun-19 02:01N 37°48' W 122°18'0 0.4
2018-Jun-19 01:30N 37°48' W 122°19'0 0.0
2018-Jun-19 01:00N 37°48' W 122°19'0 0.0
2018-Jun-19 00:31N 37°48' W 122°19'0 0.1
2018-Jun-19 00:00N 37°48' W 122°19'0 0.8
2018-Jun-18 23:30N 37°48' W 122°19'2 3.1
2018-Jun-18 23:00N 37°48' W 122°17'2 3.6
2018-Jun-18 22:31N 37°48' W 122°20'2 4.1
2018-Jun-18 22:00N 37°48' W 122°22'4 7.9
2018-Jun-18 21:30N 37°48' W 122°17'0 0.0
2018-Jun-18 20:58N 37°48' W 122°17'0 0.0
2018-Jun-18 20:30N 37°48' W 122°17'0 0.0
2018-Jun-18 20:00N 37°48' W 122°17'0 0.0
2018-Jun-18 19:30N 37°48' W 122°17'0 0.0
2018-Jun-18 19:00N 37°48' W 122°17'0 0.0
2018-Jun-18 18:31N 37°48' W 122°17'0 0.0
2018-Jun-18 18:00N 37°48' W 122°17'0 0.0
2018-Jun-18 17:30N 37°48' W 122°17'0 0.0
2018-Jun-18 17:00N 37°48' W 122°17'0 0.0
2018-Jun-18 16:30N 37°48' W 122°17'0 0.0
2018-Jun-18 16:00N 37°48' W 122°17'0 0.0
2018-Jun-18 15:30N 37°48' W 122°17'0 0.0
2018-Jun-18 15:00N 37°48' W 122°17'0 0.0
2018-Jun-18 14:30N 37°48' W 122°17'0 0.0
2018-Jun-18 14:00N 37°48' W 122°17'0 0.0
2018-Jun-18 13:30N 37°48' W 122°17'0 1.0
2018-Jun-18 13:00N 37°48' W 122°18'1 2.4
2018-Jun-18 12:30N 37°48' W 122°19'1 2.7
2018-Jun-18 12:00N 37°48' W 122°18'1 2.5
2018-Jun-18 11:30N 37°48' W 122°19'2 4.2
2018-Jun-18 11:00N 37°48' W 122°22'3 6.4
2018-Jun-18 10:30N 37°48' W 122°18'0 0.9
2018-Jun-18 10:00N 37°48' W 122°17'0 0.0
2018-Jun-18 09:30N 37°48' W 122°17'0 0.0
2018-Jun-18 08:59N 37°48' W 122°17'0 0.0
2018-Jun-18 08:30N 37°48' W 122°17'0 0.0
2018-Jun-18 08:00N 37°48' W 122°17'0 0.0
2018-Jun-18 07:30N 37°48' W 122°17'0 0.0
2018-Jun-18 07:00N 37°48' W 122°17'0 0.0
2018-Jun-18 06:30N 37°48' W 122°17'0 0.0
2018-Jun-18 06:00N 37°48' W 122°17'0 0.0
2018-Jun-18 05:30N 37°48' W 122°17'0 0.0
2018-Jun-18 05:01N 37°48' W 122°17'0 0.0
2018-Jun-18 04:30N 37°48' W 122°17'0 0.0
2018-Jun-18 03:58N 37°48' W 122°17'0 0.0
2018-Jun-18 03:30N 37°48' W 122°17'0 0.0
2018-Jun-18 03:00N 37°48' W 122°17'0 0.0
2018-Jun-18 02:30N 37°48' W 122°17'0 0.0
2018-Jun-18 02:00N 37°48' W 122°17'0 0.3
2018-Jun-18 01:30N 37°48' W 122°17'1 2.3
2018-Jun-18 01:00N 37°48' W 122°19'2 3.2
2018-Jun-18 00:30N 37°48' W 122°21'1 2.3
2018-Jun-18 00:00N 37°48' W 122°19'1 2.9
2018-Jun-17 23:30N 37°48' W 122°17'1 2.5
2018-Jun-17 23:00N 37°48' W 122°19'0 0.1
2018-Jun-17 22:30N 37°48' W 122°19'2 3.0
2018-Jun-17 22:00N 37°48' W 122°17'0 0.3
2018-Jun-17 21:30N 37°48' W 122°17'0 0.0
2018-Jun-17 21:00N 37°48' W 122°17'0 0.0
2018-Jun-17 20:28N 37°48' W 122°17'0 0.0
2018-Jun-17 20:00N 37°48' W 122°17'0 0.0
2018-Jun-17 19:30N 37°48' W 122°17'0 0.0
2018-Jun-17 19:00N 37°48' W 122°17'0 0.0
2018-Jun-17 18:30N 37°48' W 122°17'0 0.0
2018-Jun-17 18:00N 37°48' W 122°17'0 0.0
2018-Jun-17 17:30N 37°48' W 122°17'0 0.0
2018-Jun-17 17:00N 37°48' W 122°17'0 0.0
2018-Jun-17 16:30N 37°48' W 122°17'0 0.6
2018-Jun-17 15:59N 37°48' W 122°18'4 8.6
2018-Jun-17 15:30N 37°50' W 122°22'610.8
2018-Jun-17 14:59N 37°55' W 122°25'712.4
2018-Jun-17 14:28N 38°01' W 122°23'812.3
2018-Jun-17 13:49N 38°04' W 122°14'5 2.7
2018-Jun-17 12:03N 38°02' W 122°08'0 0.3
2018-Jun-17 11:59N 38°02' W 122°08'5 5.5
2018-Jun-17 11:09N 38°04' W 122°13'1 0.8
2018-Jun-17 09:46N 38°03' W 122°15'1 2.0
2018-Jun-17 09:23N 38°04' W 122°14'2 1.0
2018-Jun-17 06:55N 38°03' W 122°11'5 9.7
2018-Jun-17 06:26N 38°03' W 122°17'611.0
2018-Jun-17 05:52N 38°01' W 122°24'511.1
2018-Jun-17 05:26N 37°56' W 122°26'511.3
2018-Jun-17 05:00N 37°51' W 122°23'510.8
2018-Jun-17 04:31N 37°48' W 122°19'0 0.4
2018-Jun-17 04:01N 37°48' W 122°19'0 0.2
2018-Jun-17 03:31N 37°48' W 122°19'2 3.7
2018-Jun-17 03:00N 37°48' W 122°21'3 6.1
2018-Jun-17 02:30N 37°48' W 122°17'0 0.0
2018-Jun-17 02:00N 37°48' W 122°17'0 0.0
2018-Jun-17 01:31N 37°48' W 122°17'0 0.0
2018-Jun-17 01:01N 37°48' W 122°17'0 0.0
2018-Jun-17 00:30N 37°48' W 122°17'0 0.0
2018-Jun-17 00:00N 37°48' W 122°17'0 0.0
2018-Jun-16 23:31N 37°48' W 122°17'0 0.0
2018-Jun-16 23:00N 37°48' W 122°17'0 0.4
2018-Jun-16 22:31N 37°47' W 122°17'0 0.4
2018-Jun-16 22:01N 37°48' W 122°17'0 0.0
2018-Jun-16 21:30N 37°48' W 122°17'0 0.0
2018-Jun-16 21:01N 37°48' W 122°17'0 0.0
2018-Jun-16 20:30N 37°48' W 122°17'0 0.0
2018-Jun-16 20:00N 37°48' W 122°17'0 0.0
2018-Jun-16 19:31N 37°48' W 122°17'0 0.0
2018-Jun-16 19:01N 37°48' W 122°17'0 0.0
2018-Jun-16 18:29N 37°48' W 122°17'0 0.0
2018-Jun-16 18:00N 37°48' W 122°17'0 0.0
2018-Jun-16 17:31N 37°48' W 122°17'0 0.0
2018-Jun-16 17:00N 37°48' W 122°17'0 0.0
2018-Jun-16 16:31N 37°48' W 122°17'0 0.0
2018-Jun-16 16:01N 37°48' W 122°17'0 0.0
2018-Jun-16 15:30N 37°48' W 122°17'0 0.0
2018-Jun-16 15:01N 37°48' W 122°17'0 0.0
2018-Jun-16 14:30N 37°48' W 122°17'0 0.0
2018-Jun-16 13:59N 37°48' W 122°17'0 0.0
2018-Jun-16 13:31N 37°48' W 122°17'0 0.0
2018-Jun-16 13:00N 37°48' W 122°17'0 0.0
2018-Jun-16 12:30N 37°48' W 122°17'0 0.0
2018-Jun-16 12:00N 37°48' W 122°17'0 0.0
2018-Jun-16 11:29N 37°48' W 122°17'0 0.0
2018-Jun-16 11:00N 37°48' W 122°17'0 0.0
2018-Jun-16 10:30N 37°48' W 122°17'3 5.8
2018-Jun-16 10:00N 37°48' W 122°21'1 1.9
2018-Jun-16 09:31N 37°49' W 122°20'2 3.2
2018-Jun-16 09:00N 37°48' W 122°18'1 1.7
2018-Jun-16 08:30N 37°48' W 122°17'0 0.0
2018-Jun-16 08:00N 37°48' W 122°17'0 0.0
2018-Jun-16 07:30N 37°48' W 122°17'0 0.0
2018-Jun-16 07:00N 37°48' W 122°17'0 0.0
2018-Jun-16 06:30N 37°48' W 122°17'0 0.0
2018-Jun-16 06:00N 37°48' W 122°17'0 0.0
2018-Jun-16 05:29N 37°48' W 122°17'0 0.0
2018-Jun-16 04:59N 37°48' W 122°17'0 0.0
2018-Jun-16 04:30N 37°48' W 122°17'0 0.0
2018-Jun-16 04:00N 37°48' W 122°17'0 0.3
2018-Jun-16 03:30N 37°48' W 122°17'0 0.3
2018-Jun-16 03:00N 37°48' W 122°17'2 3.5
2018-Jun-16 02:30N 37°48' W 122°19'0 0.6
2018-Jun-16 02:00N 37°48' W 122°20'1 1.3
2018-Jun-16 01:30N 37°48' W 122°19'0 0.7
2018-Jun-16 01:00N 37°48' W 122°19'1 1.4
2018-Jun-16 00:30N 37°48' W 122°20'1 1.8
2018-Jun-16 00:01N 37°48' W 122°21'2 4.3
2018-Jun-15 23:31N 37°48' W 122°24'0 0.1
2018-Jun-15 23:01N 37°48' W 122°24'0 0.0
2018-Jun-15 22:30N 37°48' W 122°24'1 1.5
2018-Jun-15 22:01N 37°48' W 122°23'5 9.0
2018-Jun-15 21:31N 37°48' W 122°18'0 0.6
2018-Jun-15 21:01N 37°48' W 122°17'0 0.0
2018-Jun-15 20:30N 37°48' W 122°17'0 0.0
2018-Jun-15 20:00N 37°48' W 122°17'0 0.0
2018-Jun-15 19:30N 37°48' W 122°17'0 0.0
2018-Jun-15 19:01N 37°48' W 122°17'0 0.0
2018-Jun-15 18:31N 37°48' W 122°17'0 0.0
2018-Jun-15 18:00N 37°48' W 122°17'0 0.0
2018-Jun-15 17:30N 37°48' W 122°17'0 0.0
2018-Jun-15 16:58N 37°48' W 122°17'0 0.0
2018-Jun-15 16:30N 37°48' W 122°17'0 0.0
2018-Jun-15 16:00N 37°48' W 122°17'0 0.0
2018-Jun-15 15:30N 37°48' W 122°17'0 0.0
2018-Jun-15 15:00N 37°48' W 122°17'0 0.0
2018-Jun-15 14:30N 37°48' W 122°17'0 0.6
2018-Jun-15 14:00N 37°48' W 122°18'0 0.0
2018-Jun-15 13:31N 37°48' W 122°18'0 0.2
2018-Jun-15 13:00N 37°48' W 122°18'3 4.9
2018-Jun-15 12:27N 37°48' W 122°21'3 7.0
2018-Jun-15 12:00N 37°48' W 122°17'0 0.0
2018-Jun-15 11:30N 37°48' W 122°17'0 0.0
2018-Jun-15 11:01N 37°48' W 122°17'0 0.0
2018-Jun-15 10:30N 37°48' W 122°17'0 0.0
2018-Jun-15 10:00N 37°48' W 122°17'0 0.0
2018-Jun-15 09:31N 37°48' W 122°17'1 2.2
2018-Jun-15 08:58N 37°48' W 122°19'0 0.0
2018-Jun-15 08:30N 37°48' W 122°19'1 1.1
2018-Jun-15 08:00N 37°48' W 122°19'4 7.3
2018-Jun-15 07:30N 37°48' W 122°24'3 6.5
2018-Jun-15 07:00N 37°48' W 122°20'2 0.7
2018-Jun-15 04:04N 37°48' W 122°17'0 0.1
2018-Jun-15 04:00N 37°48' W 122°17'0 0.0
2018-Jun-15 03:30N 37°48' W 122°17'0 0.0
2018-Jun-15 03:01N 37°48' W 122°17'0 0.0
2018-Jun-15 02:31N 37°48' W 122°17'0 0.0
2018-Jun-15 02:01N 37°48' W 122°17'0 0.0
2018-Jun-15 01:30N 37°48' W 122°17'0 0.0
2018-Jun-15 01:00N 37°48' W 122°17'0 0.0
2018-Jun-15 00:30N 37°48' W 122°17'0 0.0
2018-Jun-15 00:01N 37°48' W 122°17'0 0.0
2018-Jun-14 23:30N 37°48' W 122°17'0 0.0
2018-Jun-14 23:00N 37°48' W 122°17'0 0.0
2018-Jun-14 22:30N 37°48' W 122°17'0 0.0
2018-Jun-14 22:00N 37°48' W 122°17'0 0.0
2018-Jun-14 21:30N 37°48' W 122°17'0 0.0
2018-Jun-14 21:00N 37°48' W 122°17'0 0.0
2018-Jun-14 20:31N 37°48' W 122°17'0 0.0
2018-Jun-14 20:00N 37°48' W 122°17'0 0.0
2018-Jun-14 19:30N 37°48' W 122°17'0 0.0
2018-Jun-14 19:00N 37°48' W 122°17'0 0.0
2018-Jun-14 18:30N 37°48' W 122°17'0 0.0
2018-Jun-14 18:00N 37°48' W 122°17'0 0.0
2018-Jun-14 17:30N 37°48' W 122°17'0 0.0
2018-Jun-14 17:00N 37°48' W 122°17'0 0.0
2018-Jun-14 16:30N 37°48' W 122°17'0 0.0
2018-Jun-14 16:00N 37°48' W 122°17'0 0.0
2018-Jun-14 15:28N 37°48' W 122°17'0 0.0
2018-Jun-14 15:00N 37°48' W 122°17'0 0.0
2018-Jun-14 14:30N 37°48' W 122°17'0 0.0
2018-Jun-14 14:00N 37°48' W 122°17'1 1.6
2018-Jun-14 13:31N 37°48' W 122°18'1 1.7
2018-Jun-14 13:00N 37°48' W 122°19'3 6.2
2018-Jun-14 12:29N 37°48' W 122°23'1 1.1
2018-Jun-14 12:01N 37°48' W 122°23'4 8.4
2018-Jun-14 11:30N 37°48' W 122°18'0 0.9
2018-Jun-14 11:01N 37°48' W 122°17'0 0.0
2018-Jun-14 10:29N 37°48' W 122°17'0 0.0
2018-Jun-14 10:00N 37°48' W 122°17'0 0.0
2018-Jun-14 09:30N 37°48' W 122°17'0 0.0
2018-Jun-14 09:00N 37°48' W 122°17'0 0.0
2018-Jun-14 08:30N 37°48' W 122°17'0 0.1
2018-Jun-14 08:01N 37°48' W 122°17'0 0.1
2018-Jun-14 07:29N 37°48' W 122°17'0 0.0
2018-Jun-14 07:00N 37°48' W 122°17'0 0.0
2018-Jun-14 06:30N 37°48' W 122°17'0 0.0
2018-Jun-14 06:00N 37°48' W 122°17'0 0.0
2018-Jun-14 05:30N 37°48' W 122°17'0 0.0
2018-Jun-14 05:01N 37°48' W 122°17'0 0.0
2018-Jun-14 04:29N 37°48' W 122°17'0 0.0
2018-Jun-14 04:00N 37°48' W 122°17'0 0.0
2018-Jun-14 03:30N 37°48' W 122°17'0 0.0
2018-Jun-14 03:00N 37°48' W 122°17'0 0.0
2018-Jun-14 02:30N 37°48' W 122°17'0 0.0
2018-Jun-14 01:59N 37°48' W 122°17'0 0.0
2018-Jun-14 01:26N 37°48' W 122°17'0 0.0
2018-Jun-14 01:00N 37°48' W 122°17'1 1.2
2018-Jun-14 00:30N 37°48' W 122°18'4 8.1
2018-Jun-14 00:00N 37°50' W 122°22'510.2
2018-Jun-13 23:30N 37°54' W 122°25'611.2
2018-Jun-13 23:00N 38°00' W 122°25'610.1
2018-Jun-13 22:27N 38°03' W 122°19'4 9.4
2018-Jun-13 22:01N 38°04' W 122°13'1 0.3
2018-Jun-13 18:35N 38°03' W 122°12'111.6
2018-Jun-13 18:29N 38°04' W 122°13'611.8
2018-Jun-13 17:58N 38°02' W 122°21'612.7
2018-Jun-13 17:30N 37°58' W 122°26'612.7
2018-Jun-13 17:00N 37°52' W 122°23'5 9.6
2018-Jun-13 16:30N 37°48' W 122°20'2 3.8
2018-Jun-13 16:00N 37°48' W 122°17'0 0.0
2018-Jun-13 15:29N 37°48' W 122°17'0 0.0
2018-Jun-13 15:00N 37°48' W 122°17'0 0.0
2018-Jun-13 14:30N 37°48' W 122°17'0 0.0
2018-Jun-13 14:00N 37°48' W 122°17'0 0.0
2018-Jun-13 13:30N 37°48' W 122°17'0 0.0
2018-Jun-13 13:00N 37°48' W 122°17'0 0.0
2018-Jun-13 12:30N 37°48' W 122°17'0 0.0
2018-Jun-13 12:00N 37°48' W 122°17'0 0.0
2018-Jun-13 11:30N 37°48' W 122°17'0 0.0
2018-Jun-13 11:00N 37°48' W 122°17'0 0.0
2018-Jun-13 10:30N 37°48' W 122°17'0 0.0
2018-Jun-13 10:00N 37°48' W 122°17'0 0.0
2018-Jun-13 09:30N 37°48' W 122°17'0 0.0
2018-Jun-13 09:00N 37°48' W 122°17'0 0.0
2018-Jun-13 08:30N 37°48' W 122°17'0 0.0
2018-Jun-13 07:54N 37°48' W 122°17'0 0.0
2018-Jun-13 07:30N 37°48' W 122°17'0 0.0
2018-Jun-13 07:00N 37°48' W 122°17'0 0.0
2018-Jun-13 06:30N 37°48' W 122°17'0 0.0
2018-Jun-13 06:00N 37°48' W 122°17'0 0.0
2018-Jun-13 05:30N 37°48' W 122°17'0 0.0
2018-Jun-13 05:00N 37°48' W 122°17'0 0.0
2018-Jun-13 04:30N 37°48' W 122°17'1 1.6
2018-Jun-13 04:00N 37°48' W 122°18'0 1.0
2018-Jun-13 03:30N 37°48' W 122°18'0 0.0
2018-Jun-13 03:00N 37°48' W 122°18'0 0.1
2018-Jun-13 02:30N 37°48' W 122°18'0 0.7
2018-Jun-13 02:00N 37°48' W 122°17'0 0.0
2018-Jun-13 01:30N 37°48' W 122°17'0 0.0
2018-Jun-13 00:58N 37°48' W 122°17'0 0.0
2018-Jun-13 00:30N 37°48' W 122°17'0 0.0
2018-Jun-13 00:00N 37°48' W 122°17'0 0.0
2018-Jun-12 23:30N 37°48' W 122°17'0 0.0
2018-Jun-12 23:00N 37°48' W 122°17'0 0.0
2018-Jun-12 22:30N 37°48' W 122°17'0 0.0
2018-Jun-12 22:00N 37°48' W 122°17'0 0.0
2018-Jun-12 21:30N 37°48' W 122°17'0 0.5
2018-Jun-12 21:00N 37°47' W 122°17'3 5.6
2018-Jun-12 20:30N 37°46' W 122°21'510.9
2018-Jun-12 20:00N 37°41' W 122°20'11 9.3
2018-Jun-12 18:49N 37°32' W 122°12'1 4.5
2018-Jun-12 18:30N 37°31' W 122°13'0 0.2
2018-Jun-12 18:00N 37°31' W 122°13'0 0.3
2018-Jun-12 17:30N 37°31' W 122°13'0 0.0
2018-Jun-12 14:31N 37°31' W 122°13'0 1.5
2018-Jun-12 14:30N 37°31' W 122°13'2 3.7
2018-Jun-12 14:00N 37°32' W 122°12'2 3.1
2018-Jun-12 13:30N 37°31' W 122°13'0 0.0
2018-Jun-12 13:00N 37°31' W 122°13'3 5.8
2018-Jun-12 12:30N 37°34' W 122°13'5 8.2
2018-Jun-12 11:56N 37°37' W 122°17'4 8.1
2018-Jun-12 11:29N 37°40' W 122°19'4 8.6
2018-Jun-12 11:00N 37°44' W 122°21'4 8.1
2018-Jun-12 10:30N 37°48' W 122°20'2 4.8
2018-Jun-12 10:00N 37°48' W 122°17'0 0.0
2018-Jun-12 09:30N 37°48' W 122°17'0 0.0
2018-Jun-12 09:00N 37°48' W 122°17'0 0.0
2018-Jun-12 08:30N 37°48' W 122°17'0 0.0
2018-Jun-12 08:00N 37°48' W 122°17'0 0.0
2018-Jun-12 07:30N 37°48' W 122°17'0 0.0
2018-Jun-12 07:00N 37°48' W 122°17'0 0.0
2018-Jun-12 06:30N 37°48' W 122°17'0 0.0
2018-Jun-12 06:00N 37°48' W 122°17'0 0.0
2018-Jun-12 05:30N 37°48' W 122°17'0 0.0
2018-Jun-12 05:00N 37°48' W 122°17'0 0.0
2018-Jun-12 04:30N 37°48' W 122°17'0 0.0
2018-Jun-12 04:00N 37°48' W 122°17'0 0.0
2018-Jun-12 03:30N 37°48' W 122°17'0 0.0
2018-Jun-12 03:00N 37°48' W 122°17'0 0.0
2018-Jun-12 02:30N 37°48' W 122°17'0 0.0
2018-Jun-12 02:00N 37°48' W 122°17'0 0.0
2018-Jun-12 01:30N 37°48' W 122°17'0 0.0
2018-Jun-12 01:00N 37°48' W 122°17'0 0.0
2018-Jun-12 00:30N 37°48' W 122°17'0 0.0
2018-Jun-12 00:00N 37°48' W 122°17'  

Dump ship's entire track history